sensor_id;sensor_type;location;lat;lon;timestamp;temperature;humidity
34279;DHT22;20538;51.528;9.942;2022-11-15T00:01:47;10.90;99.90
34279;DHT22;20538;51.528;9.942;2022-11-15T00:04:13;10.90;99.90
34279;DHT22;20538;51.528;9.942;2022-11-15T00:06:38;11.10;99.90
34279;DHT22;20538;51.528;9.942;2022-11-15T00:09:04;11.10;99.90
34279;DHT22;20538;51.528;9.942;2022-11-15T00:11:29;11.10;99.90
34279;DHT22;20538;51.528;9.942;2022-11-15T00:13:56;11.00;99.90
34279;DHT22;20538;51.528;9.942;2022-11-15T00:16:22;11.00;99.90
34279;DHT22;20538;51.528;9.942;2022-11-15T00:18:48;11.20;99.90
34279;DHT22;20538;51.528;9.942;2022-11-15T00:21:14;11.20;99.90
34279;DHT22;20538;51.528;9.942;2022-11-15T00:23:40;11.30;99.90
34279;DHT22;20538;51.528;9.942;2022-11-15T00:26:07;11.30;99.90
34279;DHT22;20538;51.528;9.942;2022-11-15T00:28:33;11.30;99.90
34279;DHT22;20538;51.528;9.942;2022-11-15T00:31:07;11.30;99.90
34279;DHT22;20538;51.528;9.942;2022-11-15T00:33:34;11.30;99.90
34279;DHT22;20538;51.528;9.942;2022-11-15T00:36:04;11.30;99.90
34279;DHT22;20538;51.528;9.942;2022-11-15T00:38:35;11.30;99.90
34279;DHT22;20538;51.528;9.942;2022-11-15T00:41:02;11.40;99.90
34279;DHT22;20538;51.528;9.942;2022-11-15T00:43:28;11.30;99.90
34279;DHT22;20538;51.528;9.942;2022-11-15T00:45:54;11.40;99.90
34279;DHT22;20538;51.528;9.942;2022-11-15T00:48:20;11.30;99.90
34279;DHT22;20538;51.528;9.942;2022-11-15T00:50:47;11.20;99.90
34279;DHT22;20538;51.528;9.942;2022-11-15T00:53:13;11.20;99.90
34279;DHT22;20538;51.528;9.942;2022-11-15T00:55:38;11.30;99.90
34279;DHT22;20538;51.528;9.942;2022-11-15T00:58:04;11.40;99.90
34279;DHT22;20538;51.528;9.942;2022-11-15T01:00:30;11.40;99.90
34279;DHT22;20538;51.528;9.942;2022-11-15T01:02:55;11.40;99.90
34279;DHT22;20538;51.528;9.942;2022-11-15T01:05:21;11.40;99.90
34279;DHT22;20538;51.528;9.942;2022-11-15T01:07:47;11.40;99.90
34279;DHT22;20538;51.528;9.942;2022-11-15T01:10:12;11.40;99.90
34279;DHT22;20538;51.528;9.942;2022-11-15T01:12:38;11.50;99.90
34279;DHT22;20538;51.528;9.942;2022-11-15T01:15:04;11.50;99.90
34279;DHT22;20538;51.528;9.942;2022-11-15T01:17:30;11.50;99.90
34279;DHT22;20538;51.528;9.942;2022-11-15T01:19:56;11.50;99.90
34279;DHT22;20538;51.528;9.942;2022-11-15T01:22:22;11.50;99.90
34279;DHT22;20538;51.528;9.942;2022-11-15T01:24:49;11.50;99.90
34279;DHT22;20538;51.528;9.942;2022-11-15T01:27:15;11.50;99.90
34279;DHT22;20538;51.528;9.942;2022-11-15T01:29:42;11.50;99.90
34279;DHT22;20538;51.528;9.942;2022-11-15T01:32:07;11.50;99.90
34279;DHT22;20538;51.528;9.942;2022-11-15T01:34:33;11.50;99.90
34279;DHT22;20538;51.528;9.942;2022-11-15T01:36:59;11.50;99.90
34279;DHT22;20538;51.528;9.942;2022-11-15T01:39:24;11.50;99.90
34279;DHT22;20538;51.528;9.942;2022-11-15T01:41:50;11.50;99.90
34279;DHT22;20538;51.528;9.942;2022-11-15T01:47:02;11.50;99.90
34279;DHT22;20538;51.528;9.942;2022-11-15T01:49:31;11.50;99.90
34279;DHT22;20538;51.528;9.942;2022-11-15T01:51:59;11.40;99.90
34279;DHT22;20538;51.528;9.942;2022-11-15T01:54:26;11.40;99.90
34279;DHT22;20538;51.528;9.942;2022-11-15T01:57:03;11.40;99.90
34279;DHT22;20538;51.528;9.942;2022-11-15T01:59:32;11.10;99.90
34279;DHT22;20538;51.528;9.942;2022-11-15T02:01:58;11.20;99.90
34279;DHT22;20538;51.528;9.942;2022-11-15T02:04:26;11.10;99.90
34279;DHT22;20538;51.528;9.942;2022-11-15T02:06:53;11.20;99.90
34279;DHT22;20538;51.528;9.942;2022-11-15T02:09:19;11.10;99.90
34279;DHT22;20538;51.528;9.942;2022-11-15T02:11:46;11.20;99.90
34279;DHT22;20538;51.528;9.942;2022-11-15T02:14:14;11.20;99.90
34279;DHT22;20538;51.528;9.942;2022-11-15T02:25:10;11.40;99.90
34279;DHT22;20538;51.528;9.942;2022-11-15T02:30:43;11.40;99.90
34279;DHT22;20538;51.528;9.942;2022-11-15T02:33:32;11.30;99.90
34279;DHT22;20538;51.528;9.942;2022-11-15T02:36:29;11.20;99.90
34279;DHT22;20538;51.528;9.942;2022-11-15T02:41:47;11.10;99.90
34279;DHT22;20538;51.528;9.942;2022-11-15T02:44:24;11.10;99.90
34279;DHT22;20538;51.528;9.942;2022-11-15T02:46:57;11.10;99.90
34279;DHT22;20538;51.528;9.942;2022-11-15T02:49:52;11.00;99.90
34279;DHT22;20538;51.528;9.942;2022-11-15T02:52:24;11.00;99.90
34279;DHT22;20538;51.528;9.942;2022-11-15T02:54:54;11.00;99.90
34279;DHT22;20538;51.528;9.942;2022-11-15T03:00:35;11.00;99.90
34279;DHT22;20538;51.528;9.942;2022-11-15T03:08:36;10.70;99.90
34279;DHT22;20538;51.528;9.942;2022-11-15T03:11:15;10.80;99.90
34279;DHT22;20538;51.528;9.942;2022-11-15T03:13:51;10.80;99.90
34279;DHT22;20538;51.528;9.942;2022-11-15T03:16:24;10.70;99.90
34279;DHT22;20538;51.528;9.942;2022-11-15T03:19:17;10.60;99.90
34279;DHT22;20538;51.528;9.942;2022-11-15T03:21:46;10.60;99.90
34279;DHT22;20538;51.528;9.942;2022-11-15T03:24:12;10.50;99.90
34279;DHT22;20538;51.528;9.942;2022-11-15T03:26:41;10.50;99.90
34279;DHT22;20538;51.528;9.942;2022-11-15T03:29:13;10.50;99.90
34279;DHT22;20538;51.528;9.942;2022-11-15T03:31:44;10.60;99.90
34279;DHT22;20538;51.528;9.942;2022-11-15T03:34:34;10.60;99.90
34279;DHT22;20538;51.528;9.942;2022-11-15T03:37:02;10.60;99.90
34279;DHT22;20538;51.528;9.942;2022-11-15T03:39:29;10.60;99.90
34279;DHT22;20538;51.528;9.942;2022-11-15T03:45:22;10.60;99.90
34279;DHT22;20538;51.528;9.942;2022-11-15T03:47:49;10.70;99.90
34279;DHT22;20538;51.528;9.942;2022-11-15T03:50:21;10.70;99.90
34279;DHT22;20538;51.528;9.942;2022-11-15T03:52:48;10.70;99.90
34279;DHT22;20538;51.528;9.942;2022-11-15T03:55:17;10.70;99.90
34279;DHT22;20538;51.528;9.942;2022-11-15T03:57:44;10.70;99.90
34279;DHT22;20538;51.528;9.942;2022-11-15T04:00:11;10.60;99.90
34279;DHT22;20538;51.528;9.942;2022-11-15T04:02:36;10.60;99.90
34279;DHT22;20538;51.528;9.942;2022-11-15T04:05:03;10.60;99.90
34279;DHT22;20538;51.528;9.942;2022-11-15T04:07:29;10.60;99.90
34279;DHT22;20538;51.528;9.942;2022-11-15T04:09:54;10.60;99.90
34279;DHT22;20538;51.528;9.942;2022-11-15T04:12:30;10.50;99.90
34279;DHT22;20538;51.528;9.942;2022-11-15T04:15:17;10.40;99.90
34279;DHT22;20538;51.528;9.942;2022-11-15T04:17:49;10.40;99.90
34279;DHT22;20538;51.528;9.942;2022-11-15T04:20:19;10.30;99.90
34279;DHT22;20538;51.528;9.942;2022-11-15T04:23:12;10.40;99.90
34279;DHT22;20538;51.528;9.942;2022-11-15T04:26:00;10.20;99.90
34279;DHT22;20538;51.528;9.942;2022-11-15T04:28:26;10.20;99.90
34279;DHT22;20538;51.528;9.942;2022-11-15T04:30:52;10.20;99.90
34279;DHT22;20538;51.528;9.942;2022-11-15T04:33:17;10.00;99.90
34279;DHT22;20538;51.528;9.942;2022-11-15T04:35:43;10.00;99.90
34279;DHT22;20538;51.528;9.942;2022-11-15T04:38:10;10.00;99.90
34279;DHT22;20538;51.528;9.942;2022-11-15T04:40:37;9.90;99.90
34279;DHT22;20538;51.528;9.942;2022-11-15T04:43:03;9.80;99.90
34279;DHT22;20538;51.528;9.942;2022-11-15T04:45:29;9.80;99.90
34279;DHT22;20538;51.528;9.942;2022-11-15T04:47:55;9.70;99.90
34279;DHT22;20538;51.528;9.942;2022-11-15T04:50:20;9.70;99.90
34279;DHT22;20538;51.528;9.942;2022-11-15T04:52:51;9.60;99.90
34279;DHT22;20538;51.528;9.942;2022-11-15T04:55:18;9.50;99.90
34279;DHT22;20538;51.528;9.942;2022-11-15T04:57:43;9.30;99.90
34279;DHT22;20538;51.528;9.942;2022-11-15T05:00:12;9.20;99.90
34279;DHT22;20538;51.528;9.942;2022-11-15T05:02:38;9.10;99.90
34279;DHT22;20538;51.528;9.942;2022-11-15T05:05:23;9.00;99.90
34279;DHT22;20538;51.528;9.942;2022-11-15T05:07:49;8.90;99.90
34279;DHT22;20538;51.528;9.942;2022-11-15T05:10:15;8.80;99.90
34279;DHT22;20538;51.528;9.942;2022-11-15T05:12:40;8.70;99.90
34279;DHT22;20538;51.528;9.942;2022-11-15T05:15:06;8.70;99.90
34279;DHT22;20538;51.528;9.942;2022-11-15T05:17:32;8.60;99.90
34279;DHT22;20538;51.528;9.942;2022-11-15T05:19:58;8.60;99.90
34279;DHT22;20538;51.528;9.942;2022-11-15T05:22:24;8.50;99.90
34279;DHT22;20538;51.528;9.942;2022-11-15T05:24:49;8.40;99.90
34279;DHT22;20538;51.528;9.942;2022-11-15T05:27:18;8.40;99.90
34279;DHT22;20538;51.528;9.942;2022-11-15T05:29:43;8.40;99.90
34279;DHT22;20538;51.528;9.942;2022-11-15T05:32:09;8.40;99.90
34279;DHT22;20538;51.528;9.942;2022-11-15T05:34:37;8.30;99.90
34279;DHT22;20538;51.528;9.942;2022-11-15T05:37:03;8.20;99.90
34279;DHT22;20538;51.528;9.942;2022-11-15T05:39:29;8.20;99.90
34279;DHT22;20538;51.528;9.942;2022-11-15T05:42:04;8.30;99.90
34279;DHT22;20538;51.528;9.942;2022-11-15T05:44:31;8.30;99.90
34279;DHT22;20538;51.528;9.942;2022-11-15T05:46:58;8.30;99.90
34279;DHT22;20538;51.528;9.942;2022-11-15T05:49:26;8.40;99.90
34279;DHT22;20538;51.528;9.942;2022-11-15T05:51:53;8.50;99.90
34279;DHT22;20538;51.528;9.942;2022-11-15T05:54:20;8.50;99.90
34279;DHT22;20538;51.528;9.942;2022-11-15T05:56:47;8.60;99.90
34279;DHT22;20538;51.528;9.942;2022-11-15T05:59:13;8.70;99.90
34279;DHT22;20538;51.528;9.942;2022-11-15T06:01:39;8.80;99.90
34279;DHT22;20538;51.528;9.942;2022-11-15T06:04:05;8.90;99.90
34279;DHT22;20538;51.528;9.942;2022-11-15T06:06:31;8.90;99.90
34279;DHT22;20538;51.528;9.942;2022-11-15T06:08:57;9.00;99.90
34279;DHT22;20538;51.528;9.942;2022-11-15T06:11:22;9.00;99.90
34279;DHT22;20538;51.528;9.942;2022-11-15T06:13:48;9.00;99.90
34279;DHT22;20538;51.528;9.942;2022-11-15T06:16:14;9.10;99.90
34279;DHT22;20538;51.528;9.942;2022-11-15T06:18:39;9.10;99.90
34279;DHT22;20538;51.528;9.942;2022-11-15T06:21:05;9.00;99.90
34279;DHT22;20538;51.528;9.942;2022-11-15T06:23:32;9.00;99.90
34279;DHT22;20538;51.528;9.942;2022-11-15T06:25:59;9.00;99.90
34279;DHT22;20538;51.528;9.942;2022-11-15T06:28:28;9.00;99.90
34279;DHT22;20538;51.528;9.942;2022-11-15T06:30:54;9.00;99.90
34279;DHT22;20538;51.528;9.942;2022-11-15T06:33:20;9.00;99.90
34279;DHT22;20538;51.528;9.942;2022-11-15T06:35:46;9.00;99.90
34279;DHT22;20538;51.528;9.942;2022-11-15T06:38:12;9.00;99.90
34279;DHT22;20538;51.528;9.942;2022-11-15T06:40:38;9.10;99.90
34279;DHT22;20538;51.528;9.942;2022-11-15T06:43:05;9.10;99.90
34279;DHT22;20538;51.528;9.942;2022-11-15T06:45:31;9.10;99.90
34279;DHT22;20538;51.528;9.942;2022-11-15T06:47:58;9.00;99.90
34279;DHT22;20538;51.528;9.942;2022-11-15T06:50:24;9.00;99.90
34279;DHT22;20538;51.528;9.942;2022-11-15T06:52:50;8.90;99.90
34279;DHT22;20538;51.528;9.942;2022-11-15T06:55:16;8.80;99.90
34279;DHT22;20538;51.528;9.942;2022-11-15T06:57:51;8.70;99.90
34279;DHT22;20538;51.528;9.942;2022-11-15T07:00:21;8.70;99.90
34279;DHT22;20538;51.528;9.942;2022-11-15T07:02:47;8.70;99.90
34279;DHT22;20538;51.528;9.942;2022-11-15T07:05:14;8.60;99.90
34279;DHT22;20538;51.528;9.942;2022-11-15T07:07:40;8.60;99.90
34279;DHT22;20538;51.528;9.942;2022-11-15T07:10:06;8.60;99.90
34279;DHT22;20538;51.528;9.942;2022-11-15T07:12:33;8.60;99.90
34279;DHT22;20538;51.528;9.942;2022-11-15T07:14:58;8.60;99.90
34279;DHT22;20538;51.528;9.942;2022-11-15T07:17:24;8.60;99.90
34279;DHT22;20538;51.528;9.942;2022-11-15T07:19:49;8.70;99.90
34279;DHT22;20538;51.528;9.942;2022-11-15T07:22:15;8.70;99.90
34279;DHT22;20538;51.528;9.942;2022-11-15T07:24:41;8.70;99.90
34279;DHT22;20538;51.528;9.942;2022-11-15T07:27:06;8.70;99.90
34279;DHT22;20538;51.528;9.942;2022-11-15T07:29:32;8.90;99.90
34279;DHT22;20538;51.528;9.942;2022-11-15T07:31:57;8.90;99.90
34279;DHT22;20538;51.528;9.942;2022-11-15T07:34:23;9.00;99.90
34279;DHT22;20538;51.528;9.942;2022-11-15T07:36:49;9.10;99.90
34279;DHT22;20538;51.528;9.942;2022-11-15T07:39:15;9.20;99.90
34279;DHT22;20538;51.528;9.942;2022-11-15T07:41:43;9.20;99.90
34279;DHT22;20538;51.528;9.942;2022-11-15T07:44:09;9.30;99.90
34279;DHT22;20538;51.528;9.942;2022-11-15T07:46:34;9.30;99.90
34279;DHT22;20538;51.528;9.942;2022-11-15T07:49:00;9.30;99.90
34279;DHT22;20538;51.528;9.942;2022-11-15T07:51:26;9.40;99.90
34279;DHT22;20538;51.528;9.942;2022-11-15T07:53:51;9.30;99.90
34279;DHT22;20538;51.528;9.942;2022-11-15T07:56:17;9.40;99.90
34279;DHT22;20538;51.528;9.942;2022-11-15T07:58:45;9.40;99.90
34279;DHT22;20538;51.528;9.942;2022-11-15T08:01:11;9.40;99.90
34279;DHT22;20538;51.528;9.942;2022-11-15T08:03:37;9.40;99.90
34279;DHT22;20538;51.528;9.942;2022-11-15T08:06:03;9.40;99.90
34279;DHT22;20538;51.528;9.942;2022-11-15T08:08:29;9.30;99.90
34279;DHT22;20538;51.528;9.942;2022-11-15T08:10:54;9.20;99.90
34279;DHT22;20538;51.528;9.942;2022-11-15T08:13:22;9.10;99.90
34279;DHT22;20538;51.528;9.942;2022-11-15T08:15:48;9.00;99.90
34279;DHT22;20538;51.528;9.942;2022-11-15T08:18:15;9.00;99.90
34279;DHT22;20538;51.528;9.942;2022-11-15T08:20:42;9.00;99.90
34279;DHT22;20538;51.528;9.942;2022-11-15T08:23:10;9.00;99.90
34279;DHT22;20538;51.528;9.942;2022-11-15T08:25:37;9.00;99.90
34279;DHT22;20538;51.528;9.942;2022-11-15T08:28:05;8.90;99.90
34279;DHT22;20538;51.528;9.942;2022-11-15T08:30:38;9.00;99.90
34279;DHT22;20538;51.528;9.942;2022-11-15T08:33:10;9.00;99.90
34279;DHT22;20538;51.528;9.942;2022-11-15T08:35:36;9.00;99.90
34279;DHT22;20538;51.528;9.942;2022-11-15T08:38:02;9.20;99.90
34279;DHT22;20538;51.528;9.942;2022-11-15T08:40:27;9.70;99.90
34279;DHT22;20538;51.528;9.942;2022-11-15T08:42:53;9.80;99.90
34279;DHT22;20538;51.528;9.942;2022-11-15T08:45:19;9.80;99.90
34279;DHT22;20538;51.528;9.942;2022-11-15T08:47:44;10.00;99.90
34279;DHT22;20538;51.528;9.942;2022-11-15T08:50:10;10.60;99.90
34279;DHT22;20538;51.528;9.942;2022-11-15T08:52:35;12.10;99.90
34279;DHT22;20538;51.528;9.942;2022-11-15T08:55:01;12.10;99.90
34279;DHT22;20538;51.528;9.942;2022-11-15T08:57:29;11.40;99.90
34279;DHT22;20538;51.528;9.942;2022-11-15T08:59:58;11.10;99.90
34279;DHT22;20538;51.528;9.942;2022-11-15T09:02:23;10.90;99.90
34279;DHT22;20538;51.528;9.942;2022-11-15T09:04:49;10.90;99.90
34279;DHT22;20538;51.528;9.942;2022-11-15T09:07:16;10.90;99.90
34279;DHT22;20538;51.528;9.942;2022-11-15T09:09:41;10.80;99.90
34279;DHT22;20538;51.528;9.942;2022-11-15T09:12:07;10.80;99.90
34279;DHT22;20538;51.528;9.942;2022-11-15T09:14:33;10.90;99.90
34279;DHT22;20538;51.528;9.942;2022-11-15T09:16:59;10.90;99.90
34279;DHT22;20538;51.528;9.942;2022-11-15T09:19:25;11.00;99.90
34279;DHT22;20538;51.528;9.942;2022-11-15T09:21:51;11.10;99.90
34279;DHT22;20538;51.528;9.942;2022-11-15T09:24:17;11.10;99.90
34279;DHT22;20538;51.528;9.942;2022-11-15T09:26:43;11.20;99.90
34279;DHT22;20538;51.528;9.942;2022-11-15T09:29:08;11.20;99.90
34279;DHT22;20538;51.528;9.942;2022-11-15T09:31:34;11.30;99.90
34279;DHT22;20538;51.528;9.942;2022-11-15T09:34:00;11.30;99.90
34279;DHT22;20538;51.528;9.942;2022-11-15T09:36:25;11.40;99.90
34279;DHT22;20538;51.528;9.942;2022-11-15T09:38:51;11.50;99.90
34279;DHT22;20538;51.528;9.942;2022-11-15T09:41:43;11.60;99.90
34279;DHT22;20538;51.528;9.942;2022-11-15T09:44:56;11.80;99.90
34279;DHT22;20538;51.528;9.942;2022-11-15T09:47:43;11.90;99.90
34279;DHT22;20538;51.528;9.942;2022-11-15T09:50:15;12.00;99.90
34279;DHT22;20538;51.528;9.942;2022-11-15T09:52:44;12.10;99.90
34279;DHT22;20538;51.528;9.942;2022-11-15T09:55:12;12.10;99.90
34279;DHT22;20538;51.528;9.942;2022-11-15T09:58:01;12.30;99.90
34279;DHT22;20538;51.528;9.942;2022-11-15T10:00:40;12.30;99.90
34279;DHT22;20538;51.528;9.942;2022-11-15T10:03:20;12.40;99.90
34279;DHT22;20538;51.528;9.942;2022-11-15T10:05:49;12.50;99.90
34279;DHT22;20538;51.528;9.942;2022-11-15T10:08:42;12.60;99.90
34279;DHT22;20538;51.528;9.942;2022-11-15T10:11:11;12.70;99.90
34279;DHT22;20538;51.528;9.942;2022-11-15T10:13:43;12.60;99.90
34279;DHT22;20538;51.528;9.942;2022-11-15T10:24:13;12.70;99.90
34279;DHT22;20538;51.528;9.942;2022-11-15T10:26:48;12.80;99.90
34279;DHT22;20538;51.528;9.942;2022-11-15T10:29:21;12.90;99.90
34279;DHT22;20538;51.528;9.942;2022-11-15T10:31:47;12.90;99.90
34279;DHT22;20538;51.528;9.942;2022-11-15T10:34:21;13.00;99.90
34279;DHT22;20538;51.528;9.942;2022-11-15T10:36:58;13.00;99.90
34279;DHT22;20538;51.528;9.942;2022-11-15T10:39:25;12.90;99.90
34279;DHT22;20538;51.528;9.942;2022-11-15T10:41:51;13.00;99.90
34279;DHT22;20538;51.528;9.942;2022-11-15T10:47:07;13.00;99.90
34279;DHT22;20538;51.528;9.942;2022-11-15T10:49:33;13.10;99.90
34279;DHT22;20538;51.528;9.942;2022-11-15T10:52:02;13.20;99.90
34279;DHT22;20538;51.528;9.942;2022-11-15T10:57:04;13.30;99.90
34279;DHT22;20538;51.528;9.942;2022-11-15T10:59:32;13.30;99.90
34279;DHT22;20538;51.528;9.942;2022-11-15T11:02:00;13.40;99.90
34279;DHT22;20538;51.528;9.942;2022-11-15T11:04:26;13.50;99.90
34279;DHT22;20538;51.528;9.942;2022-11-15T11:06:58;13.50;99.90
34279;DHT22;20538;51.528;9.942;2022-11-15T11:09:35;13.60;99.90
34279;DHT22;20538;51.528;9.942;2022-11-15T11:12:03;13.60;99.90
34279;DHT22;20538;51.528;9.942;2022-11-15T11:14:33;13.60;99.90
34279;DHT22;20538;51.528;9.942;2022-11-15T11:17:23;13.70;99.90
34279;DHT22;20538;51.528;9.942;2022-11-15T11:29:08;13.80;99.90
34279;DHT22;20538;51.528;9.942;2022-11-15T11:40:34;13.90;99.90
34279;DHT22;20538;51.528;9.942;2022-11-15T11:48:20;13.80;99.90
34279;DHT22;20538;51.528;9.942;2022-11-15T11:50:49;13.80;99.90
34279;DHT22;20538;51.528;9.942;2022-11-15T11:55:51;13.90;99.90
34279;DHT22;20538;51.528;9.942;2022-11-15T11:58:41;13.90;99.90
34279;DHT22;20538;51.528;9.942;2022-11-15T12:03:57;13.80;99.90
34279;DHT22;20538;51.528;9.942;2022-11-15T12:06:32;13.90;99.90
34279;DHT22;20538;51.528;9.942;2022-11-15T12:12:09;13.80;99.90
34279;DHT22;20538;51.528;9.942;2022-11-15T12:14:49;13.80;99.90
34279;DHT22;20538;51.528;9.942;2022-11-15T12:17:19;13.80;99.90
34279;DHT22;20538;51.528;9.942;2022-11-15T12:19:46;13.80;99.90
34279;DHT22;20538;51.528;9.942;2022-11-15T12:22:13;13.80;99.90
34279;DHT22;20538;51.528;9.942;2022-11-15T12:24:47;13.90;99.90
34279;DHT22;20538;51.528;9.942;2022-11-15T12:29:58;14.00;99.90
34279;DHT22;20538;51.528;9.942;2022-11-15T12:32:35;14.00;99.90
34279;DHT22;20538;51.528;9.942;2022-11-15T12:35:05;14.10;99.90
34279;DHT22;20538;51.528;9.942;2022-11-15T12:45:01;14.10;99.90
34279;DHT22;20538;51.528;9.942;2022-11-15T12:47:27;14.10;99.90
34279;DHT22;20538;51.528;9.942;2022-11-15T12:49:53;14.10;99.90
34279;DHT22;20538;51.528;9.942;2022-11-15T12:52:19;14.20;99.90
34279;DHT22;20538;51.528;9.942;2022-11-15T12:54:59;14.20;99.90
34279;DHT22;20538;51.528;9.942;2022-11-15T12:57:29;14.20;99.90
34279;DHT22;20538;51.528;9.942;2022-11-15T12:59:57;14.20;99.90
34279;DHT22;20538;51.528;9.942;2022-11-15T13:02:28;14.20;99.90
34279;DHT22;20538;51.528;9.942;2022-11-15T13:27:49;14.00;99.90
34279;DHT22;20538;51.528;9.942;2022-11-15T13:30:22;14.00;99.90
34279;DHT22;20538;51.528;9.942;2022-11-15T13:32:48;14.00;99.90
34279;DHT22;20538;51.528;9.942;2022-11-15T13:35:33;14.00;99.90
34279;DHT22;20538;51.528;9.942;2022-11-15T13:38:04;14.00;99.90
34279;DHT22;20538;51.528;9.942;2022-11-15T13:40:35;13.90;99.90
34279;DHT22;20538;51.528;9.942;2022-11-15T13:46:22;13.80;99.90
34279;DHT22;20538;51.528;9.942;2022-11-15T13:48:53;13.80;99.90
34279;DHT22;20538;51.528;9.942;2022-11-15T13:51:21;13.80;99.90
34279;DHT22;20538;51.528;9.942;2022-11-15T13:53:54;13.80;99.90
34279;DHT22;20538;51.528;9.942;2022-11-15T13:56:21;13.80;99.90
34279;DHT22;20538;51.528;9.942;2022-11-15T13:58:47;13.70;99.90
34279;DHT22;20538;51.528;9.942;2022-11-15T14:01:18;13.70;99.90
34279;DHT22;20538;51.528;9.942;2022-11-15T14:04:05;13.70;99.90
34279;DHT22;20538;51.528;9.942;2022-11-15T14:06:34;13.70;99.90
34279;DHT22;20538;51.528;9.942;2022-11-15T14:11:34;13.60;99.90
34279;DHT22;20538;51.528;9.942;2022-11-15T14:16:46;13.70;99.90
34279;DHT22;20538;51.528;9.942;2022-11-15T14:22:20;13.80;99.90
34279;DHT22;20538;51.528;9.942;2022-11-15T14:25:14;13.80;99.90
34279;DHT22;20538;51.528;9.942;2022-11-15T14:27:42;13.70;99.90
34279;DHT22;20538;51.528;9.942;2022-11-15T14:30:26;13.60;99.90
34279;DHT22;20538;51.528;9.942;2022-11-15T14:32:52;13.50;99.90
34279;DHT22;20538;51.528;9.942;2022-11-15T14:35:22;13.40;99.90
34279;DHT22;20538;51.528;9.942;2022-11-15T14:37:48;13.40;99.90
34279;DHT22;20538;51.528;9.942;2022-11-15T14:40:17;13.30;99.90
34279;DHT22;20538;51.528;9.942;2022-11-15T14:42:45;13.20;99.90
34279;DHT22;20538;51.528;9.942;2022-11-15T14:45:17;13.20;99.90
34279;DHT22;20538;51.528;9.942;2022-11-15T14:47:43;13.20;99.90
34279;DHT22;20538;51.528;9.942;2022-11-15T14:50:17;13.20;99.90
34279;DHT22;20538;51.528;9.942;2022-11-15T14:52:44;13.20;99.90
34279;DHT22;20538;51.528;9.942;2022-11-15T14:55:25;13.20;99.90
34279;DHT22;20538;51.528;9.942;2022-11-15T14:57:52;13.20;99.90
34279;DHT22;20538;51.528;9.942;2022-11-15T15:00:18;13.20;99.90
34279;DHT22;20538;51.528;9.942;2022-11-15T15:02:46;13.10;99.90
34279;DHT22;20538;51.528;9.942;2022-11-15T15:05:20;13.10;99.90
34279;DHT22;20538;51.528;9.942;2022-11-15T15:07:46;13.10;99.90
34279;DHT22;20538;51.528;9.942;2022-11-15T15:10:13;13.00;99.90
34279;DHT22;20538;51.528;9.942;2022-11-15T15:12:40;12.90;99.90
34279;DHT22;20538;51.528;9.942;2022-11-15T15:15:17;12.80;99.90
34279;DHT22;20538;51.528;9.942;2022-11-15T15:17:45;12.70;99.90
34279;DHT22;20538;51.528;9.942;2022-11-15T15:20:11;12.70;99.90
34279;DHT22;20538;51.528;9.942;2022-11-15T15:22:37;12.60;99.90
34279;DHT22;20538;51.528;9.942;2022-11-15T15:25:34;12.60;99.90
34279;DHT22;20538;51.528;9.942;2022-11-15T15:28:00;12.50;99.90
34279;DHT22;20538;51.528;9.942;2022-11-15T15:30:28;12.40;99.90
34279;DHT22;20538;51.528;9.942;2022-11-15T15:32:54;12.40;99.90
34279;DHT22;20538;51.528;9.942;2022-11-15T15:35:24;12.40;99.90
34279;DHT22;20538;51.528;9.942;2022-11-15T15:37:54;12.30;99.90
34279;DHT22;20538;51.528;9.942;2022-11-15T15:40:22;12.30;99.90
34279;DHT22;20538;51.528;9.942;2022-11-15T15:42:50;12.10;99.90
34279;DHT22;20538;51.528;9.942;2022-11-15T15:45:17;12.10;99.90
34279;DHT22;20538;51.528;9.942;2022-11-15T15:47:44;12.00;99.90
34279;DHT22;20538;51.528;9.942;2022-11-15T15:52:51;12.00;99.90
34279;DHT22;20538;51.528;9.942;2022-11-15T15:55:18;11.90;99.90
34279;DHT22;20538;51.528;9.942;2022-11-15T15:57:44;11.90;99.90
34279;DHT22;20538;51.528;9.942;2022-11-15T16:00:10;11.90;99.90
34279;DHT22;20538;51.528;9.942;2022-11-15T16:02:36;12.00;99.90
34279;DHT22;20538;51.528;9.942;2022-11-15T16:05:02;12.00;99.90
34279;DHT22;20538;51.528;9.942;2022-11-15T16:07:28;12.00;99.90
34279;DHT22;20538;51.528;9.942;2022-11-15T16:09:54;12.00;99.90
34279;DHT22;20538;51.528;9.942;2022-11-15T16:12:34;12.00;99.90
34279;DHT22;20538;51.528;9.942;2022-11-15T16:15:00;11.90;99.90
34279;DHT22;20538;51.528;9.942;2022-11-15T16:17:31;11.80;99.90
34279;DHT22;20538;51.528;9.942;2022-11-15T16:19:57;11.80;99.90
34279;DHT22;20538;51.528;9.942;2022-11-15T16:22:23;11.90;99.90
34279;DHT22;20538;51.528;9.942;2022-11-15T16:24:48;11.80;99.90
34279;DHT22;20538;51.528;9.942;2022-11-15T16:27:19;11.80;99.90
34279;DHT22;20538;51.528;9.942;2022-11-15T16:29:46;11.70;99.90
34279;DHT22;20538;51.528;9.942;2022-11-15T16:32:12;11.90;99.90
34279;DHT22;20538;51.528;9.942;2022-11-15T16:34:38;11.80;99.90
34279;DHT22;20538;51.528;9.942;2022-11-15T16:37:04;11.80;99.90
34279;DHT22;20538;51.528;9.942;2022-11-15T16:39:30;11.80;99.90
34279;DHT22;20538;51.528;9.942;2022-11-15T16:41:57;11.80;99.90
34279;DHT22;20538;51.528;9.942;2022-11-15T16:44:23;11.90;99.90
34279;DHT22;20538;51.528;9.942;2022-11-15T16:46:49;11.80;99.90
34279;DHT22;20538;51.528;9.942;2022-11-15T16:49:17;11.80;99.90
34279;DHT22;20538;51.528;9.942;2022-11-15T16:51:48;11.80;99.90
34279;DHT22;20538;51.528;9.942;2022-11-15T16:54:14;11.80;99.90
34279;DHT22;20538;51.528;9.942;2022-11-15T16:56:40;11.90;99.90
34279;DHT22;20538;51.528;9.942;2022-11-15T16:59:06;11.90;99.90
34279;DHT22;20538;51.528;9.942;2022-11-15T17:01:35;11.90;99.90
34279;DHT22;20538;51.528;9.942;2022-11-15T17:04:03;11.80;99.90
34279;DHT22;20538;51.528;9.942;2022-11-15T17:06:40;11.90;99.90
34279;DHT22;20538;51.528;9.942;2022-11-15T17:09:13;11.80;99.90
34279;DHT22;20538;51.528;9.942;2022-11-15T17:11:41;11.80;99.90
34279;DHT22;20538;51.528;9.942;2022-11-15T17:14:06;11.80;99.90
34279;DHT22;20538;51.528;9.942;2022-11-15T17:16:32;11.80;99.90
34279;DHT22;20538;51.528;9.942;2022-11-15T17:18:59;11.80;99.90
34279;DHT22;20538;51.528;9.942;2022-11-15T17:21:26;11.80;99.90
34279;DHT22;20538;51.528;9.942;2022-11-15T17:23:53;11.80;99.90
34279;DHT22;20538;51.528;9.942;2022-11-15T17:26:19;11.80;99.90
34279;DHT22;20538;51.528;9.942;2022-11-15T17:28:45;11.80;99.90
34279;DHT22;20538;51.528;9.942;2022-11-15T17:31:12;11.80;99.90
34279;DHT22;20538;51.528;9.942;2022-11-15T17:33:38;11.80;99.90
34279;DHT22;20538;51.528;9.942;2022-11-15T17:36:10;11.80;99.90
34279;DHT22;20538;51.528;9.942;2022-11-15T17:38:36;11.80;99.90
34279;DHT22;20538;51.528;9.942;2022-11-15T17:41:11;11.80;99.90
34279;DHT22;20538;51.528;9.942;2022-11-15T17:43:37;11.90;99.90
34279;DHT22;20538;51.528;9.942;2022-11-15T17:46:05;11.80;99.90
34279;DHT22;20538;51.528;9.942;2022-11-15T17:48:31;11.90;99.90